createdAt,value
2022-09-16T00:01:34.745Z,56.75
2022-09-16T00:06:36.272Z,56.77
2022-09-16T00:11:37.840Z,56.66
2022-09-16T00:16:39.348Z,56.67
2022-09-16T00:21:40.919Z,57.04
2022-09-16T00:26:43.188Z,56.84
2022-09-16T00:31:44.725Z,56.80
2022-09-16T00:36:46.228Z,57.24
2022-09-16T00:41:47.708Z,57.00
2022-09-16T00:46:49.674Z,57.25
2022-09-16T00:51:54.401Z,57.17
2022-09-16T00:56:59.233Z,57.42
2022-09-16T01:02:06.722Z,57.28
2022-09-16T01:07:08.411Z,57.39
2022-09-16T01:12:09.903Z,57.48
2022-09-16T01:17:14.237Z,57.50
2022-09-16T01:22:43.850Z,57.49
2022-09-16T01:28:22.037Z,57.31
2022-09-16T01:33:45.564Z,57.41
2022-09-16T01:38:56.052Z,57.04
2022-09-16T01:44:01.179Z,57.36
2022-09-16T01:49:16.050Z,57.25
2022-09-16T01:54:34.272Z,57.31
2022-09-16T01:59:53.208Z,57.21
2022-09-16T02:04:57.502Z,57.52
2022-09-16T02:10:06.695Z,57.44
2022-09-16T02:15:11.427Z,57.68
2022-09-16T02:20:17.526Z,57.50
2022-09-16T02:25:19.934Z,57.55
2022-09-16T02:30:23.179Z,57.33
2022-09-16T02:35:28.041Z,57.39
2022-09-16T02:40:35.089Z,57.17
2022-09-16T02:45:39.846Z,57.38
2022-09-16T02:51:09.683Z,57.11
2022-09-16T02:56:24.581Z,57.42
2022-09-16T03:01:27.875Z,57.30
2022-09-16T03:06:30.066Z,57.36
2022-09-16T03:11:31.534Z,57.39
2022-09-16T03:16:41.594Z,57.25
2022-09-16T03:22:13.087Z,57.15
2022-09-16T03:27:23.146Z,57.34
2022-09-16T03:32:30.809Z,57.10
2022-09-16T03:37:35.424Z,57.34
2022-09-16T03:42:40.136Z,57.17
2022-09-16T03:47:43.110Z,56.97
2022-09-16T03:52:44.607Z,57.13
2022-09-16T03:57:46.077Z,57.16
2022-09-16T04:02:47.615Z,57.19
2022-09-16T04:07:50.041Z,56.79
2022-09-16T04:12:51.502Z,56.75
2022-09-16T04:17:53.009Z,56.84
2022-09-16T04:22:54.543Z,56.81
2022-09-16T04:27:55.999Z,56.56
2022-09-16T04:32:57.603Z,56.49
2022-09-16T04:37:59.068Z,56.48
2022-09-16T04:43:00.525Z,56.57
2022-09-16T04:48:02.135Z,56.54
2022-09-16T04:53:03.624Z,56.25
2022-09-16T04:58:05.094Z,56.31
2022-09-16T05:03:07.552Z,56.38
2022-09-16T05:08:09.077Z,55.84
2022-09-16T05:13:10.552Z,55.84
2022-09-16T05:18:12.032Z,55.85
2022-09-16T05:23:13.550Z,55.63
2022-09-16T05:28:15.042Z,55.30
2022-09-16T05:33:16.591Z,55.68
2022-09-16T05:38:18.042Z,55.55
2022-09-16T05:43:19.507Z,55.69
2022-09-16T05:48:22.471Z,55.61
2022-09-16T05:53:25.541Z,55.64
2022-09-16T05:58:28.454Z,55.55
2022-09-16T06:03:30.027Z,55.62
2022-09-16T06:08:34.170Z,55.74
2022-09-16T06:13:35.740Z,55.67
2022-09-16T06:18:38.059Z,55.77
2022-09-16T06:23:40.351Z,55.65
2022-09-16T06:28:42.352Z,55.86
2022-09-16T06:33:44.637Z,55.80
2022-09-16T06:38:46.930Z,55.94
2022-09-16T06:43:51.155Z,56.03
2022-09-16T06:49:04.304Z,56.00
2022-09-16T06:54:08.303Z,56.10
2022-09-16T06:59:11.117Z,55.95
2022-09-16T07:04:15.715Z,56.04
2022-09-16T07:09:18.050Z,56.05
2022-09-16T07:14:19.511Z,56.18
2022-09-16T07:19:21.329Z,55.97
2022-09-16T07:24:22.843Z,56.04
2022-09-16T07:29:24.639Z,55.88
2022-09-16T07:34:26.120Z,55.96
2022-09-16T07:39:27.763Z,55.94
2022-09-16T07:44:29.521Z,55.58
2022-09-16T07:49:31.104Z,55.93
2022-09-16T07:54:32.689Z,55.54
2022-09-16T07:59:34.163Z,55.45
2022-09-16T08:04:35.636Z,55.51
2022-09-16T08:09:48.577Z,54.91
2022-09-16T08:14:52.173Z,55.19
2022-09-16T08:19:53.673Z,55.23
2022-09-16T08:24:55.168Z,55.25
2022-09-16T08:29:56.646Z,55.16
2022-09-16T08:34:58.524Z,55.29
2022-09-16T08:40:00.167Z,55.01
2022-09-16T08:45:31.259Z,54.77
2022-09-16T08:50:37.609Z,55.00
2022-09-16T08:55:42.565Z,54.93
2022-09-16T09:00:47.341Z,54.74
2022-09-16T09:05:54.930Z,54.62
2022-09-16T09:11:23.861Z,54.74
2022-09-16T09:16:46.462Z,54.49
2022-09-16T09:21:51.981Z,54.40
2022-09-16T09:27:14.392Z,54.14
2022-09-16T09:32:49.852Z,54.16
2022-09-16T09:38:22.545Z,54.45
2022-09-16T09:43:33.047Z,53.96
2022-09-16T09:49:00.796Z,53.96
2022-09-16T09:54:12.872Z,53.86
2022-09-16T09:59:23.387Z,53.90
2022-09-16T10:04:25.083Z,53.62
2022-09-16T10:09:26.773Z,53.63
2022-09-16T10:14:33.750Z,53.31
2022-09-16T10:19:48.722Z,53.33
2022-09-16T10:25:02.137Z,53.20
2022-09-16T10:30:03.574Z,53.33
2022-09-16T10:35:09.043Z,53.25
2022-09-16T10:40:17.364Z,53.31
2022-09-16T10:45:25.879Z,53.16
2022-09-16T10:50:28.192Z,53.03
2022-09-16T10:55:37.773Z,53.23
2022-09-16T11:00:49.406Z,53.09
2022-09-16T11:06:02.880Z,53.01
2022-09-16T11:11:23.159Z,52.89
2022-09-16T11:16:43.466Z,52.85
2022-09-16T11:21:59.885Z,52.97
2022-09-16T11:27:26.409Z,52.94
2022-09-16T11:32:35.911Z,52.64
2022-09-16T11:38:02.523Z,52.77
2022-09-16T11:43:26.354Z,52.15
2022-09-16T11:48:41.298Z,52.05
2022-09-16T11:53:57.264Z,51.46
2022-09-16T11:59:05.261Z,50.95
2022-09-16T12:04:32.754Z,51.00
2022-09-16T12:09:55.555Z,51.16
2022-09-16T12:15:05.461Z,51.42
2022-09-16T12:20:19.266Z,51.60
2022-09-16T12:25:38.126Z,51.90
2022-09-16T12:30:44.622Z,51.63
2022-09-16T12:36:07.128Z,51.64
2022-09-16T12:41:32.529Z,51.66
2022-09-16T12:46:55.579Z,51.60
2022-09-16T12:52:00.888Z,51.73
2022-09-16T12:57:29.750Z,51.68
2022-09-16T13:02:47.849Z,51.36
2022-09-16T13:07:53.638Z,51.19
2022-09-16T13:12:59.123Z,50.88
2022-09-16T13:18:16.520Z,50.83
2022-09-16T13:23:24.808Z,50.52
2022-09-16T13:28:32.184Z,50.53
2022-09-16T13:33:33.793Z,50.43
2022-09-16T13:38:38.718Z,50.88
2022-09-16T13:43:42.997Z,50.80
2022-09-16T13:49:02.668Z,50.73
2022-09-16T13:54:04.635Z,50.75
2022-09-16T13:59:40.406Z,50.72
2022-09-16T14:05:15.908Z,50.86
2022-09-16T14:10:42.195Z,50.95
2022-09-16T14:15:51.339Z,51.02
2022-09-16T14:21:17.781Z,51.20
2022-09-16T14:26:21.710Z,51.11
2022-09-16T14:31:29.520Z,50.80
2022-09-16T14:36:36.180Z,51.01
2022-09-16T14:41:43.220Z,51.04
2022-09-16T14:47:09.256Z,50.91
2022-09-16T14:52:20.398Z,50.81
2022-09-16T14:57:24.742Z,50.62
2022-09-16T15:02:36.049Z,50.42
2022-09-16T15:07:56.193Z,50.40
2022-09-16T15:13:04.788Z,50.24
2022-09-16T15:18:12.449Z,50.08
2022-09-16T15:23:23.742Z,49.74
2022-09-16T15:28:25.782Z,49.71
2022-09-16T15:33:34.307Z,49.52
2022-09-16T15:38:35.970Z,49.76
2022-09-16T15:43:44.439Z,49.80
2022-09-16T15:48:48.694Z,49.84
2022-09-16T15:53:52.116Z,49.43
2022-09-16T15:59:01.670Z,49.47
2022-09-16T16:04:06.482Z,49.51
2022-09-16T16:09:27.881Z,49.26
2022-09-16T16:14:33.964Z,48.91
2022-09-16T16:19:35.945Z,48.81
2022-09-16T16:24:37.571Z,48.20
2022-09-16T16:29:39.379Z,48.00
2022-09-16T16:34:47.280Z,47.30
2022-09-16T16:39:48.835Z,47.54
2022-09-16T16:44:51.120Z,47.32
2022-09-16T16:49:52.628Z,47.40
2022-09-16T16:54:54.147Z,47.32
2022-09-16T16:59:55.680Z,47.46
2022-09-16T17:04:57.244Z,47.48
2022-09-16T17:09:58.714Z,47.59
2022-09-16T17:15:00.201Z,47.73
2022-09-16T17:20:01.883Z,47.29
2022-09-16T17:25:03.503Z,47.34
2022-09-16T17:30:05.530Z,47.72
2022-09-16T17:35:07.334Z,47.68
2022-09-16T17:40:09.527Z,47.74
2022-09-16T17:45:11.274Z,47.44
2022-09-16T17:50:14.031Z,47.28
2022-09-16T17:55:15.785Z,47.01
2022-09-16T18:00:18.076Z,46.88
2022-09-16T18:05:19.656Z,46.86
2022-09-16T18:10:23.338Z,46.76
2022-09-16T18:15:25.450Z,46.66
2022-09-16T18:20:27.062Z,46.46
2022-09-16T18:25:29.000Z,46.63
2022-09-16T18:30:30.601Z,46.74
2022-09-16T18:35:37.034Z,46.66
2022-09-16T18:40:39.687Z,47.02
2022-09-16T18:45:41.334Z,46.80
2022-09-16T18:50:43.093Z,46.58
2022-09-16T18:55:44.621Z,46.95
2022-09-16T19:00:49.039Z,47.41
2022-09-16T19:05:56.957Z,47.12
2022-09-16T19:11:02.626Z,47.29
2022-09-16T19:16:04.269Z,47.77
2022-09-16T19:21:06.200Z,47.80
2022-09-16T19:26:07.819Z,47.71
2022-09-16T19:31:12.877Z,48.17
2022-09-16T19:36:19.245Z,48.01
2022-09-16T19:41:23.892Z,48.16
2022-09-16T19:46:26.734Z,48.38
2022-09-16T19:51:29.068Z,48.47
2022-09-16T19:56:32.891Z,48.55
2022-09-16T20:01:36.224Z,48.78
2022-09-16T20:06:42.339Z,48.85
2022-09-16T20:11:46.055Z,48.92
2022-09-16T20:16:49.194Z,49.11
2022-09-16T20:21:50.752Z,49.22
2022-09-16T20:26:54.771Z,49.49
2022-09-16T20:31:56.359Z,49.67
2022-09-16T20:36:57.937Z,49.47
2022-09-16T20:41:59.569Z,49.86
2022-09-16T20:47:02.044Z,49.65
2022-09-16T20:52:03.562Z,49.87
2022-09-16T20:57:05.358Z,49.73
2022-09-16T21:02:08.956Z,49.76
2022-09-16T21:07:12.191Z,50.11
2022-09-16T21:12:16.318Z,50.28
2022-09-16T21:17:19.870Z,50.11
2022-09-16T21:22:22.514Z,50.25
2022-09-16T21:27:24.111Z,50.21
2022-09-16T21:32:25.933Z,50.60
2022-09-16T21:37:27.740Z,50.84
2022-09-16T21:42:29.439Z,50.54
2022-09-16T21:47:32.186Z,50.42
2022-09-16T21:52:33.901Z,50.82
2022-09-16T21:57:35.425Z,50.99
2022-09-16T22:02:37.007Z,50.94
2022-09-16T22:07:39.636Z,50.83
2022-09-16T22:12:41.201Z,51.03
2022-09-16T22:17:43.503Z,51.09
2022-09-16T22:22:45.021Z,51.53
2022-09-16T22:27:46.524Z,51.09
2022-09-16T22:32:48.151Z,51.17
2022-09-16T22:37:49.829Z,51.46
2022-09-16T22:42:51.362Z,51.52
2022-09-16T22:47:52.883Z,51.28
2022-09-16T22:52:54.402Z,51.30
2022-09-16T22:57:55.992Z,51.32
2022-09-16T23:02:57.473Z,51.35
2022-09-16T23:07:58.963Z,51.33
2022-09-16T23:13:00.868Z,51.49
2022-09-16T23:18:02.377Z,51.54
2022-09-16T23:23:04.423Z,51.52
2022-09-16T23:28:05.935Z,51.49
2022-09-16T23:33:07.463Z,51.71
2022-09-16T23:38:08.954Z,51.86
2022-09-16T23:43:10.491Z,51.84
2022-09-16T23:48:13.323Z,52.17
2022-09-16T23:53:14.813Z,51.91
2022-09-16T23:58:16.587Z,52.49
